Time;durP1;ratioP1;P1;durP2;ratioP2;P2;SDS_P1;SDS_P2;PMS_P1;PMS_P2;Temp;Humidity;BMP_temperature;BMP_pressure;BME280_temperature;BME280_humidity;BME280_pressure;Samples;Min_cycle;Max_cycle;Signal;HPM_P1;HPM_P2
2022/07/19 00:02:05;;;;;;;66.32;42.63;;;27.70;99.90;;;;;;5035302;28;20053;-64
2022/07/19 00:04:33;;;;;;;71.05;42.80;;;27.80;99.90;;;;;;5035183;28;20021;-64
2022/07/19 00:07:00;;;;;;;65.40;40.67;;;27.90;99.90;;;;;;5034999;28;20026;-66
2022/07/19 00:09:27;;;;;;;62.75;40.15;;;28.00;99.90;;;;;;5035398;28;20116;-63
2022/07/19 00:11:54;;;;;;;62.70;38.72;;;28.10;99.90;;;;;;5035903;28;20169;-63
2022/07/19 00:14:21;;;;;;;68.90;46.92;;;28.20;99.90;;;;;;5041005;28;20037;-64
2022/07/19 00:16:48;;;;;;;76.55;47.28;;;28.20;99.90;;;;;;5056030;28;20127;-64
2022/07/19 00:19:15;;;;;;;61.70;40.80;;;28.20;99.90;;;;;;5055423;28;20056;-64
2022/07/19 00:21:41;;;;;;;50.13;38.00;;;28.30;99.90;;;;;;5055410;28;20032;-64
2022/07/19 00:24:08;;;;;;;65.45;42.65;;;28.30;99.90;;;;;;5055340;28;20040;-64
2022/07/19 00:26:34;;;;;;;50.95;38.45;;;28.30;99.90;;;;;;5055076;28;20036;-64
2022/07/19 00:29:01;;;;;;;49.42;35.80;;;28.30;99.90;;;;;;5055437;28;20025;-64
2022/07/19 00:31:29;;;;;;;46.42;35.22;;;28.40;99.90;;;;;;5054920;28;20473;-63
2022/07/19 00:33:55;;;;;;;61.88;35.55;;;28.40;99.90;;;;;;5054783;28;20064;-64
2022/07/19 00:36:22;;;;;;;45.13;36.67;;;28.40;99.90;;;;;;5054971;28;20027;-63
2022/07/19 00:38:49;;;;;;;52.00;33.85;;;28.50;99.90;;;;;;5055179;28;20063;-64
2022/07/19 00:41:16;;;;;;;47.78;35.05;;;28.50;99.90;;;;;;5054771;28;20477;-64
2022/07/19 00:43:43;;;;;;;52.53;37.90;;;28.50;99.90;;;;;;5054468;28;20037;-65
2022/07/19 00:46:15;;;;;;;47.38;35.63;;;28.50;99.90;;;;;;5054370;28;20024;-65
2022/07/19 00:48:42;;;;;;;50.97;34.70;;;28.60;99.90;;;;;;5054330;28;20108;-65
2022/07/19 00:51:13;;;;;;;52.20;35.70;;;28.60;99.90;;;;;;5054301;28;20033;-64
2022/07/19 00:53:41;;;;;;;48.00;36.08;;;28.60;99.90;;;;;;5054418;28;20589;-64
2022/07/19 00:56:09;;;;;;;52.53;34.42;;;28.60;99.90;;;;;;5054211;28;20513;-64
2022/07/19 00:58:38;;;;;;;49.80;35.30;;;28.70;99.90;;;;;;5054131;28;20477;-64
2022/07/19 01:01:06;;;;;;;45.38;34.38;;;28.70;99.90;;;;;;5054099;28;20024;-64
2022/07/19 01:03:35;;;;;;;55.78;41.38;;;28.70;99.90;;;;;;5054085;28;20037;-64
2022/07/19 01:06:02;;;;;;;51.70;38.55;;;28.80;99.90;;;;;;5053838;28;20104;-66
2022/07/19 01:08:29;;;;;;;55.10;38.55;;;28.70;99.90;;;;;;5054018;28;20028;-65
2022/07/19 01:10:56;;;;;;;53.88;36.95;;;28.70;99.90;;;;;;5053950;28;20478;-64
2022/07/19 01:13:23;;;;;;;52.85;38.00;;;28.70;99.90;;;;;;5053896;28;20029;-65
2022/07/19 01:15:49;;;;;;;66.57;42.00;;;28.70;99.90;;;;;;5053916;28;20031;-64
2022/07/19 01:18:16;;;;;;;57.42;38.72;;;28.70;99.90;;;;;;5054026;28;20051;-64
2022/07/19 01:20:43;;;;;;;55.38;37.92;;;28.70;99.90;;;;;;5047134;28;20112;-64
2022/07/19 01:23:09;;;;;;;52.50;37.13;;;28.80;99.90;;;;;;5041417;28;20025;-64
2022/07/19 01:25:37;;;;;;;57.05;37.90;;;28.80;99.90;;;;;;5046300;28;20474;-64
2022/07/19 01:28:06;;;;;;;61.55;37.72;;;28.80;99.90;;;;;;5033643;28;20462;-65
2022/07/19 01:30:34;;;;;;;59.60;39.42;;;28.90;99.90;;;;;;5014158;28;20030;-64
2022/07/19 01:33:02;;;;;;;56.45;41.53;;;28.90;99.90;;;;;;5013924;28;20030;-65
2022/07/19 01:35:29;;;;;;;45.55;31.95;;;28.90;99.90;;;;;;5015524;28;20100;-64
2022/07/19 01:37:56;;;;;;;53.47;33.70;;;28.90;99.90;;;;;;5033885;28;20022;-64
2022/07/19 01:40:24;;;;;;;48.22;34.88;;;28.90;99.90;;;;;;5033608;28;20455;-64
2022/07/19 01:42:51;;;;;;;50.85;33.65;;;29.00;99.90;;;;;;5033542;28;20044;-64
2022/07/19 01:45:19;;;;;;;45.03;33.25;;;29.10;99.90;;;;;;5033594;28;20492;-64
2022/07/19 01:47:45;;;;;;;43.63;32.33;;;29.10;99.90;;;;;;5033385;28;20037;-64
2022/07/19 01:50:14;;;;;;;45.15;31.13;;;29.10;99.90;;;;;;5033748;28;20507;-65
2022/07/19 01:52:40;;;;;;;44.20;30.10;;;29.10;99.90;;;;;;5033428;28;20026;-64
2022/07/19 01:55:07;;;;;;;44.38;33.20;;;29.10;99.90;;;;;;5033336;28;20033;-64
2022/07/19 01:57:34;;;;;;;50.00;35.42;;;29.10;99.90;;;;;;5033200;28;20048;-65
2022/07/19 02:00:01;;;;;;;50.17;37.15;;;29.10;99.90;;;;;;5033395;28;20041;-65
2022/07/19 02:02:27;;;;;;;56.78;38.35;;;29.10;99.90;;;;;;5033285;28;20017;-65
2022/07/19 02:04:54;;;;;;;60.80;39.55;;;29.10;99.90;;;;;;5033115;28;20092;-65
2022/07/19 02:07:20;;;;;;;53.97;36.88;;;29.20;99.90;;;;;;5033295;28;20033;-65
2022/07/19 02:09:47;;;;;;;51.40;37.03;;;29.20;99.90;;;;;;5033412;28;20022;-65
2022/07/19 02:12:13;;;;;;;46.38;33.97;;;29.30;99.90;;;;;;5033541;28;20029;-65
2022/07/19 02:14:40;;;;;;;41.03;29.40;;;29.30;99.90;;;;;;5037248;28;20101;-64
2022/07/19 02:17:06;;;;;;;48.45;29.70;;;29.40;99.90;;;;;;5037403;28;20052;-65
2022/07/19 02:19:33;;;;;;;46.20;29.67;;;29.50;99.90;;;;;;5037251;28;20029;-64
2022/07/19 02:21:59;;;;;;;41.28;29.60;;;29.50;99.90;;;;;;5037425;28;20052;-65
2022/07/19 02:24:26;;;;;;;54.83;31.45;;;29.60;99.90;;;;;;5037167;28;20021;-64
2022/07/19 02:26:52;;;;;;;36.70;25.67;;;29.80;99.90;;;;;;5037088;28;20482;-64
2022/07/19 02:29:19;;;;;;;44.33;27.02;;;30.00;99.90;;;;;;5036972;28;20061;-64
2022/07/19 02:31:45;;;;;;;38.15;27.67;;;30.10;99.90;;;;;;5037110;28;20018;-65
2022/07/19 02:34:12;;;;;;;41.10;27.48;;;30.20;99.90;;;;;;5036934;28;20525;-65
2022/07/19 02:36:38;;;;;;;37.60;27.42;;;30.30;99.90;;;;;;5036777;28;20025;-65
2022/07/19 02:39:05;;;;;;;38.35;27.90;;;30.40;99.90;;;;;;5037141;28;20085;-65
2022/07/19 02:41:32;;;;;;;41.10;27.08;;;30.50;99.90;;;;;;5037101;28;20053;-65
2022/07/19 02:43:58;;;;;;;44.30;27.33;;;30.40;99.90;;;;;;5036694;28;20029;-65
2022/07/19 02:46:25;;;;;;;35.42;26.77;;;30.40;99.90;;;;;;5037301;28;20025;-65
2022/07/19 02:48:51;;;;;;;37.38;27.90;;;30.30;99.90;;;;;;5036945;28;20036;-65
2022/07/19 02:51:18;;;;;;;44.13;28.25;;;30.20;99.90;;;;;;5036903;28;20028;-65
2022/07/19 02:53:44;;;;;;;40.00;26.00;;;30.20;99.90;;;;;;5036847;28;20112;-65
2022/07/19 02:56:11;;;;;;;44.20;28.00;;;30.10;99.90;;;;;;5036845;28;20028;-64
2022/07/19 02:58:37;;;;;;;41.75;28.75;;;30.00;99.90;;;;;;5036583;28;20040;-65
2022/07/19 03:01:04;;;;;;;40.42;28.38;;;30.10;99.90;;;;;;5036904;28;20536;-65
2022/07/19 03:05:59;;;;;;;33.55;23.98;;;30.10;99.90;;;;;;5036446;28;20076;-66
2022/07/19 03:08:26;;;;;;;38.85;24.75;;;30.10;99.90;;;;;;5036499;28;20491;-66
2022/07/19 03:10:52;;;;;;;34.40;24.77;;;30.10;99.90;;;;;;5036296;28;20034;-65
2022/07/19 03:13:19;;;;;;;31.63;25.05;;;30.20;99.90;;;;;;5036069;28;20127;-66
2022/07/19 03:15:45;;;;;;;39.33;25.95;;;30.30;99.90;;;;;;5037302;28;20167;-65
2022/07/19 03:18:12;;;;;;;39.40;29.58;;;30.40;99.90;;;;;;5036230;28;20111;-66
2022/07/19 03:20:38;;;;;;;36.85;28.35;;;30.60;99.90;;;;;;5053765;28;20075;-65
2022/07/19 03:23:05;;;;;;;38.88;29.08;;;30.70;99.90;;;;;;5047704;28;20025;-64
2022/07/19 03:25:31;;;;;;;42.33;27.70;;;30.90;99.90;;;;;;5056695;28;20025;-64
2022/07/19 03:27:58;;;;;;;37.42;24.35;;;31.00;99.90;;;;;;5055666;28;20074;-64
2022/07/19 03:30:24;;;;;;;35.30;25.95;;;31.00;99.90;;;;;;5054513;28;20543;-65
2022/07/19 03:32:51;;;;;;;42.92;27.42;;;30.90;99.90;;;;;;5045488;28;20477;-64
2022/07/19 03:35:19;;;;;;;30.20;22.80;;;30.90;99.90;;;;;;5050729;28;20021;-64
2022/07/19 03:37:46;;;;;;;27.83;21.83;;;31.00;99.90;;;;;;5055092;28;20047;-64
2022/07/19 03:40:13;;;;;;;29.30;21.52;;;31.10;99.90;;;;;;5055176;28;20036;-64
2022/07/19 03:42:40;;;;;;;28.40;21.25;;;31.20;99.90;;;;;;5055330;28;20386;-65
2022/07/19 03:45:07;;;;;;;35.15;21.33;;;31.30;99.90;;;;;;5053557;28;20362;-69
2022/07/19 03:47:33;;;;;;;36.90;21.45;;;31.30;99.90;;;;;;5050890;28;20020;-66
2022/07/19 03:50:00;;;;;;;31.10;21.45;;;31.40;99.90;;;;;;5055378;28;20017;-65
2022/07/19 03:52:27;;;;;;;28.30;20.15;;;31.50;99.90;;;;;;5036497;28;20049;-67
2022/07/19 03:54:53;;;;;;;26.98;18.13;;;31.60;99.90;;;;;;5045757;28;20366;-65
2022/07/19 03:57:20;;;;;;;29.73;22.83;;;31.50;99.90;;;;;;5055107;28;20379;-64
2022/07/19 03:59:47;;;;;;;35.35;23.75;;;31.50;99.90;;;;;;5055126;28;20025;-65
2022/07/19 04:02:14;;;;;;;32.80;22.42;;;31.50;99.90;;;;;;5055077;28;20044;-64
2022/07/19 04:04:40;;;;;;;31.50;21.83;;;31.50;99.90;;;;;;5053701;28;20029;-65
2022/07/19 04:07:07;;;;;;;28.63;22.15;;;31.40;99.90;;;;;;5054832;28;20025;-65
2022/07/19 04:09:33;;;;;;;28.50;22.45;;;31.30;99.90;;;;;;5055248;28;20508;-66
2022/07/19 04:12:00;;;;;;;29.52;21.42;;;31.30;99.90;;;;;;5055100;28;20029;-66
2022/07/19 04:14:26;;;;;;;32.10;21.50;;;31.40;99.90;;;;;;5054798;28;20025;-66
2022/07/19 04:16:56;;;;;;;30.63;21.33;;;31.50;99.90;;;;;;5051458;28;20471;-65
2022/07/19 04:19:22;;;;;;;24.52;19.08;;;31.60;99.90;;;;;;5034540;28;20034;-65
2022/07/19 04:21:49;;;;;;;31.30;17.92;;;31.90;99.90;;;;;;5034400;28;20045;-65
2022/07/19 04:24:15;;;;;;;48.05;37.20;;;32.00;99.90;;;;;;5034289;28;20470;-65
2022/07/19 04:26:42;;;;;;;34.05;26.50;;;32.00;99.90;;;;;;5034516;28;20028;-65
2022/07/19 04:29:08;;;;;;;52.88;39.38;;;32.20;99.90;;;;;;5034318;28;20466;-66
2022/07/19 04:31:35;;;;;;;26.27;19.92;;;32.20;99.90;;;;;;5034233;28;20025;-65
2022/07/19 04:34:01;;;;;;;34.97;25.90;;;32.20;99.90;;;;;;5034242;28;20029;-65
2022/07/19 04:36:28;;;;;;;31.10;19.73;;;32.40;99.90;;;;;;5030903;28;20478;-64
2022/07/19 04:38:54;;;;;;;34.40;26.45;;;32.50;99.90;;;;;;5034397;28;20424;-65
2022/07/19 04:41:21;;;;;;;32.28;24.52;;;32.50;99.90;;;;;;5038675;28;20131;-66
2022/07/19 04:43:47;;;;;;;37.78;26.65;;;32.60;99.90;;;;;;5045653;28;20194;-66
2022/07/19 04:46:14;;;;;;;152.65;121.75;;;32.70;99.90;;;;;;5054415;28;20033;-66
2022/07/19 04:48:41;;;;;;;53.90;37.38;;;32.70;99.90;;;;;;5054465;28;20021;-65
2022/07/19 04:51:08;;;;;;;27.58;19.52;;;32.70;99.90;;;;;;5054344;28;20029;-66
2022/07/19 04:53:35;;;;;;;31.85;22.27;;;32.70;99.90;;;;;;5054114;28;20071;-66
2022/07/19 04:56:02;;;;;;;25.75;19.90;;;32.70;99.90;;;;;;5054305;28;20040;-66
2022/07/19 04:58:28;;;;;;;31.98;21.48;;;32.70;99.90;;;;;;5054121;28;20494;-66
2022/07/19 05:00:55;;;;;;;20.75;17.10;;;32.80;99.90;;;;;;5053942;28;20067;-66
2022/07/19 05:03:21;;;;;;;30.35;18.98;;;32.90;99.90;;;;;;5054075;28;20039;-66
2022/07/19 05:05:48;;;;;;;32.03;22.52;;;33.00;99.90;;;;;;5054033;28;20078;-66
2022/07/19 05:08:15;;;;;;;73.03;54.92;;;33.00;99.90;;;;;;5053846;28;20497;-66
2022/07/19 05:10:41;;;;;;;45.22;29.70;;;32.90;99.90;;;;;;5054130;28;20425;-66
2022/07/19 05:13:08;;;;;;;35.95;26.85;;;32.90;99.90;;;;;;5053982;28;20033;-66
2022/07/19 05:15:34;;;;;;;36.40;27.45;;;32.90;99.90;;;;;;5053538;28;20025;-65
2022/07/19 05:18:01;;;;;;;22.92;19.30;;;33.00;99.90;;;;;;5053914;28;20028;-66
2022/07/19 05:20:27;;;;;;;25.58;18.67;;;33.10;99.90;;;;;;5054006;28;20025;-66
2022/07/19 05:22:54;;;;;;;28.02;21.73;;;33.00;99.90;;;;;;5052296;28;20426;-66
2022/07/19 05:25:21;;;;;;;34.10;23.63;;;33.00;99.90;;;;;;5045679;28;20037;-65
2022/07/19 05:27:47;;;;;;;25.15;21.23;;;33.10;99.90;;;;;;5032469;28;20242;-66
2022/07/19 05:30:14;;;;;;;30.48;20.52;;;33.30;99.90;;;;;;5029398;28;20421;-65
2022/07/19 05:32:40;;;;;;;42.33;32.28;;;33.20;99.90;;;;;;5032147;28;20021;-65
2022/07/19 05:35:07;;;;;;;57.17;44.67;;;32.90;99.90;;;;;;5032229;28;20021;-65
2022/07/19 05:37:34;;;;;;;70.55;55.60;;;32.80;99.90;;;;;;5031720;28;20040;-63
2022/07/19 05:40:00;;;;;;;37.90;27.23;;;32.80;99.90;;;;;;5033317;28;20028;-65
2022/07/19 05:42:27;;;;;;;35.22;29.30;;;32.70;99.90;;;;;;5034028;28;20433;-65
2022/07/19 05:44:53;;;;;;;63.33;47.53;;;32.60;99.60;;;;;;5033855;28;20411;-65
2022/07/19 05:47:20;;;;;;;51.92;37.47;;;32.60;99.80;;;;;;5033396;28;20359;-65
2022/07/19 05:49:46;;;;;;;29.25;21.08;;;32.50;99.90;;;;;;5034295;28;20543;-66
2022/07/19 05:52:13;;;;;;;24.08;16.65;;;32.50;99.60;;;;;;5034287;28;20064;-65
2022/07/19 05:54:40;;;;;;;23.45;17.50;;;32.60;99.70;;;;;;5034150;28;20033;-65
2022/07/19 05:57:06;;;;;;;22.73;17.08;;;32.70;98.70;;;;;;5033873;28;20060;-66
2022/07/19 05:59:35;;;;;;;68.03;60.15;;;32.90;99.10;;;;;;5034053;28;20034;-65
2022/07/19 06:02:03;;;;;;;26.45;18.40;;;33.00;97.20;;;;;;5034091;28;20286;-66
2022/07/19 06:04:30;;;;;;;20.83;15.27;;;33.00;97.20;;;;;;5034116;28;20029;-66
2022/07/19 06:06:56;;;;;;;20.58;14.90;;;33.00;97.00;;;;;;5033685;28;20393;-66
2022/07/19 06:09:23;;;;;;;19.90;14.07;;;32.90;97.00;;;;;;5033960;28;20030;-66
2022/07/19 06:11:51;;;;;;;20.88;15.07;;;32.80;97.10;;;;;;5033914;28;20056;-66
2022/07/19 06:14:17;;;;;;;24.13;15.45;;;32.80;97.10;;;;;;5033837;28;20117;-65
2022/07/19 06:16:44;;;;;;;19.45;13.25;;;32.90;96.30;;;;;;5033624;28;20049;-66
2022/07/19 06:19:11;;;;;;;22.83;15.38;;;33.10;96.30;;;;;;5032841;28;20076;-65
2022/07/19 06:21:38;;;;;;;22.75;15.70;;;33.20;96.60;;;;;;5032569;28;20148;-66
2022/07/19 06:24:05;;;;;;;21.60;16.23;;;33.40;94.30;;;;;;5032757;28;20025;-66
2022/07/19 06:26:32;;;;;;;27.02;15.52;;;33.40;94.60;;;;;;5032924;28;20021;-66
2022/07/19 06:28:58;;;;;;;25.48;15.38;;;33.30;94.80;;;;;;5032770;28;20100;-66
2022/07/19 06:31:25;;;;;;;20.40;14.45;;;33.20;95.10;;;;;;5032669;28;20018;-66
2022/07/19 06:33:52;;;;;;;22.33;14.18;;;33.10;95.20;;;;;;5032756;28;20022;-66
2022/07/19 06:36:20;;;;;;;20.83;15.88;;;33.10;94.40;;;;;;5034035;28;20050;-66
2022/07/19 06:38:47;;;;;;;19.67;14.65;;;33.00;95.00;;;;;;5043717;28;20017;-65
2022/07/19 06:41:14;;;;;;;20.20;14.68;;;33.00;95.50;;;;;;5052716;28;20628;-63
2022/07/19 06:43:41;;;;;;;21.65;16.60;;;33.10;95.60;;;;;;5052732;28;20025;-64
2022/07/19 06:46:08;;;;;;;18.58;14.65;;;33.30;95.40;;;;;;5051168;28;20424;-64
2022/07/19 06:48:34;;;;;;;16.33;12.57;;;33.40;93.70;;;;;;5052079;28;20103;-64
2022/07/19 06:51:01;;;;;;;25.33;19.52;;;33.30;92.90;;;;;;5052565;28;20083;-64
2022/07/19 06:53:28;;;;;;;23.83;15.38;;;33.20;93.50;;;;;;5052432;28;20109;-65
2022/07/19 06:55:55;;;;;;;20.75;16.25;;;33.10;93.10;;;;;;5052499;28;20024;-65
2022/07/19 06:58:21;;;;;;;23.48;16.70;;;33.20;93.70;;;;;;5053029;28;20065;-63
2022/07/19 07:00:51;;;;;;;20.88;16.38;;;33.20;94.30;;;;;;5056134;28;20379;-65
2022/07/19 07:03:18;;;;;;;35.00;19.65;;;33.50;94.50;;;;;;5056436;28;20032;-64
2022/07/19 07:05:46;;;;;;;21.40;14.60;;;33.60;94.40;;;;;;5056115;28;20025;-64
2022/07/19 07:08:12;;;;;;;20.92;13.32;;;33.80;92.90;;;;;;5056012;28;20534;-63
2022/07/19 07:10:39;;;;;;;23.27;15.02;;;33.60;92.10;;;;;;5056055;28;20029;-65
2022/07/19 07:13:06;;;;;;;19.15;14.40;;;33.60;92.80;;;;;;5055952;28;20029;-64
2022/07/19 07:15:33;;;;;;;23.35;16.00;;;33.60;92.90;;;;;;5055806;28;20029;-64
2022/07/19 07:17:59;;;;;;;20.80;14.85;;;33.40;93.10;;;;;;5056243;28;20033;-63
2022/07/19 07:20:26;;;;;;;21.80;14.32;;;33.50;93.50;;;;;;5055901;28;20075;-64
2022/07/19 07:22:52;;;;;;;21.00;13.40;;;33.60;94.20;;;;;;5052496;28;20032;-64
2022/07/19 07:25:19;;;;;;;18.88;12.75;;;33.40;94.50;;;;;;5043347;28;20060;-63
2022/07/19 07:27:46;;;;;;;20.27;13.35;;;33.50;94.90;;;;;;5036141;28;20386;-64
2022/07/19 07:30:12;;;;;;;24.98;14.35;;;33.40;94.60;;;;;;5054430;28;20420;-64
2022/07/19 07:32:39;;;;;;;20.65;13.02;;;33.30;95.00;;;;;;5055842;28;20021;-64
2022/07/19 07:35:06;;;;;;;23.77;13.65;;;33.30;95.20;;;;;;5055890;28;20017;-64
2022/07/19 07:37:32;;;;;;;25.77;13.80;;;33.40;95.30;;;;;;5055547;28;20094;-64
2022/07/19 07:39:59;;;;;;;21.10;12.70;;;33.40;95.00;;;;;;5044463;28;20037;-65
2022/07/19 07:42:26;;;;;;;19.00;14.15;;;33.40;94.80;;;;;;5035073;28;20053;-63
2022/07/19 07:44:53;;;;;;;20.33;15.93;;;33.30;94.60;;;;;;5034551;28;20056;-64
2022/07/19 07:47:19;;;;;;;18.45;13.88;;;33.20;94.90;;;;;;5033836;28;20052;-63
2022/07/19 07:49:46;;;;;;;17.90;13.00;;;33.30;95.40;;;;;;5034057;28;20461;-63
2022/07/19 07:52:12;;;;;;;19.33;12.82;;;33.30;94.60;;;;;;5033882;28;20032;-63
2022/07/19 07:54:39;;;;;;;17.83;12.60;;;33.30;94.30;;;;;;5033710;28;20048;-65
2022/07/19 07:57:06;;;;;;;18.67;12.48;;;33.30;94.40;;;;;;5037494;28;20049;-66
2022/07/19 07:59:32;;;;;;;19.90;14.18;;;33.30;94.70;;;;;;5037820;28;20021;-65
2022/07/19 08:01:59;;;;;;;21.30;13.75;;;33.20;94.50;;;;;;5036633;28;20030;-67
2022/07/19 08:04:26;;;;;;;19.08;14.48;;;33.20;93.90;;;;;;5035183;28;20271;-67
2022/07/19 08:06:53;;;;;;;18.50;13.80;;;33.20;94.00;;;;;;5035842;28;20033;-68
2022/07/19 08:09:20;;;;;;;19.63;13.57;;;33.20;94.40;;;;;;5035265;28;20029;-68
2022/07/19 08:11:47;;;;;;;25.52;16.02;;;33.20;94.10;;;;;;5032984;28;20029;-68
2022/07/19 08:14:14;;;;;;;26.77;16.45;;;33.20;94.10;;;;;;5033515;28;20107;-68
2022/07/19 08:16:40;;;;;;;23.38;16.63;;;33.20;94.10;;;;;;5033268;28;20367;-67
2022/07/19 08:19:07;;;;;;;22.95;15.68;;;33.10;94.00;;;;;;5038583;28;20104;-65
2022/07/19 08:21:33;;;;;;;24.40;14.80;;;33.00;93.80;;;;;;5036101;28;20100;-65
2022/07/19 08:24:00;;;;;;;25.10;18.15;;;33.10;94.00;;;;;;5033691;28;20035;-66
2022/07/19 08:26:26;;;;;;;26.90;17.13;;;33.10;93.80;;;;;;5033754;28;20075;-65
2022/07/19 08:28:53;;;;;;;21.15;12.77;;;33.10;93.60;;;;;;5033827;28;20108;-65
2022/07/19 08:31:20;;;;;;;20.33;13.55;;;33.10;93.30;;;;;;5033386;28;20032;-66
2022/07/19 08:33:46;;;;;;;18.15;14.20;;;33.00;93.00;;;;;;5033689;28;20355;-66
2022/07/19 08:36:13;;;;;;;16.13;12.63;;;32.90;92.20;;;;;;5033804;28;20017;-65
2022/07/19 08:38:40;;;;;;;26.13;13.05;;;32.90;92.50;;;;;;5034119;28;20097;-66
2022/07/19 08:41:07;;;;;;;23.92;16.30;;;33.00;93.30;;;;;;5033709;28;20044;-65
2022/07/19 08:43:34;;;;;;;28.10;17.08;;;33.00;92.90;;;;;;5033349;28;20112;-65
2022/07/19 08:46:01;;;;;;;24.98;14.65;;;33.00;93.30;;;;;;5033696;28;20470;-65
2022/07/19 08:48:34;;;;;;;18.75;13.13;;;33.00;93.70;;;;;;5033524;28;20021;-65
2022/07/19 08:51:04;;;;;;;26.30;14.88;;;33.00;94.20;;;;;;5031092;28;20051;-65
2022/07/19 08:53:33;;;;;;;26.77;15.30;;;32.90;94.40;;;;;;5034401;28;20041;-65
2022/07/19 08:57:56;;;;;;;29.73;20.63;;;32.80;94.40;;;;;;5034544;28;20521;-65
2022/07/19 08:58:48;;;;;;;83.63;53.95;;;32.70;95.00;;;;;;5032092;28;20048;-65
2022/07/19 09:01:14;;;;;;;38.55;25.17;;;32.60;95.50;;;;;;5033574;28;20014;-65
2022/07/19 09:04:03;;;;;;;44.53;29.05;;;32.50;95.40;;;;;;5038500;28;20060;-66
2022/07/19 09:06:49;;;;;;;31.15;17.40;;;32.40;95.40;;;;;;5032083;28;20025;-65
2022/07/19 09:09:19;;;;;;;59.65;44.72;;;32.40;95.50;;;;;;5031905;28;20025;-65
2022/07/19 09:11:50;;;;;;;34.10;24.50;;;32.30;95.60;;;;;;5034905;28;20052;-65
2022/07/19 09:14:24;;;;;;;32.43;20.60;;;32.40;96.20;;;;;;5029983;28;20026;-65
2022/07/19 09:16:57;;;;;;;149.13;111.00;;;32.40;95.90;;;;;;5032631;28;20034;-66
2022/07/19 09:19:25;;;;;;;139.55;108.90;;;32.40;96.50;;;;;;5032439;28;20394;-65
2022/07/19 09:21:58;;;;;;;103.53;73.88;;;32.40;96.20;;;;;;5032213;28;20021;-65
2022/07/19 09:24:25;;;;;;;108.50;74.35;;;32.30;97.00;;;;;;5032377;28;20036;-65
2022/07/19 09:27:13;;;;;;;53.58;41.72;;;32.30;96.70;;;;;;5033236;28;20100;-65
2022/07/19 09:29:43;;;;;;;33.47;21.92;;;32.20;97.30;;;;;;5029064;28;20037;-66
2022/07/19 09:32:13;;;;;;;35.92;20.15;;;32.20;97.20;;;;;;5040515;28;20100;-65
2022/07/19 09:34:48;;;;;;;62.78;39.80;;;32.20;97.00;;;;;;5037021;28;20056;-66
2022/07/19 09:37:17;;;;;;;62.50;39.88;;;32.20;97.10;;;;;;5030203;28;20099;-66
2022/07/19 09:39:46;;;;;;;50.53;35.22;;;32.10;97.10;;;;;;5040793;28;20017;-66
2022/07/19 09:42:19;;;;;;;44.53;30.40;;;32.10;97.30;;;;;;5030352;28;20091;-65
2022/07/19 09:44:46;;;;;;;77.50;51.75;;;32.10;97.20;;;;;;5032141;28;20075;-65
2022/07/19 09:47:13;;;;;;;58.88;40.50;;;32.00;97.10;;;;;;5031782;28;20480;-65
2022/07/19 09:49:40;;;;;;;111.55;76.90;;;32.00;97.20;;;;;;5032354;28;20386;-64
2022/07/19 09:52:08;;;;;;;129.23;76.80;;;31.90;97.40;;;;;;5032997;28;20501;-65
2022/07/19 09:54:37;;;;;;;57.60;34.00;;;31.90;97.40;;;;;;5032897;28;20053;-66
2022/07/19 09:57:04;;;;;;;89.45;55.20;;;31.80;97.50;;;;;;5032777;28;20480;-66
2022/07/19 09:59:32;;;;;;;100.38;61.95;;;31.80;97.30;;;;;;5032252;28;20456;-68
2022/07/19 10:01:59;;;;;;;42.85;26.92;;;31.80;97.40;;;;;;5031517;28;20017;-67
2022/07/19 10:04:27;;;;;;;62.97;37.25;;;31.70;97.60;;;;;;5031724;28;20030;-67
2022/07/19 10:06:54;;;;;;;61.63;37.10;;;31.60;97.80;;;;;;5031576;28;20458;-69
2022/07/19 10:09:22;;;;;;;41.60;24.77;;;31.50;98.10;;;;;;5031785;28;20501;-67
2022/07/19 10:11:50;;;;;;;75.32;48.80;;;31.50;98.20;;;;;;5032862;28;20036;-66
2022/07/19 10:14:17;;;;;;;62.95;43.63;;;31.50;98.30;;;;;;5031543;28;20025;-68
2022/07/19 10:16:47;;;;;;;76.10;49.88;;;31.50;98.60;;;;;;5028924;28;20068;-66
2022/07/19 10:19:19;;;;;;;54.72;38.05;;;31.50;98.60;;;;;;5031632;28;20068;-68
2022/07/19 10:21:47;;;;;;;40.88;25.15;;;31.50;98.80;;;;;;5029411;28;20021;-67
2022/07/19 10:24:13;;;;;;;146.80;79.95;;;31.50;99.00;;;;;;5033047;28;20159;-68
2022/07/19 10:26:43;;;;;;;52.13;32.58;;;31.50;99.00;;;;;;5032938;28;20025;-68
2022/07/19 10:29:16;;;;;;;33.05;23.55;;;31.40;99.10;;;;;;5032840;28;20029;-67
2022/07/19 10:31:43;;;;;;;43.53;28.80;;;31.30;99.20;;;;;;5032920;28;20025;-67
2022/07/19 10:34:21;;;;;;;64.50;39.33;;;31.30;99.50;;;;;;5034796;28;20490;-67
2022/07/19 10:36:48;;;;;;;49.35;27.38;;;31.30;99.80;;;;;;5036300;28;20486;-67
2022/07/19 10:39:21;;;;;;;53.58;31.65;;;31.20;99.90;;;;;;5036605;28;20026;-67
2022/07/19 10:41:52;;;;;;;44.55;27.75;;;31.20;99.90;;;;;;5036594;28;20119;-68
2022/07/19 10:44:19;;;;;;;33.33;21.20;;;31.20;99.90;;;;;;5036663;28;20049;-68
2022/07/19 10:46:51;;;;;;;35.05;22.17;;;31.20;99.90;;;;;;5036573;28;20470;-68
2022/07/19 10:49:40;;;;;;;34.70;19.13;;;31.20;99.90;;;;;;5036169;28;20040;-67
2022/07/19 10:52:12;;;;;;;41.25;23.20;;;31.20;99.90;;;;;;5023776;28;20040;-68
2022/07/19 10:54:38;;;;;;;38.85;23.02;;;31.20;99.90;;;;;;5040006;28;20060;-68
2022/07/19 10:57:05;;;;;;;34.20;21.80;;;31.20;99.90;;;;;;5056253;28;20041;-69
2022/07/19 10:59:34;;;;;;;71.40;46.75;;;31.10;99.90;;;;;;5053912;28;20025;-68
2022/07/19 11:02:02;;;;;;;89.03;56.55;;;31.10;99.90;;;;;;5030420;28;20021;-68
2022/07/19 11:04:32;;;;;;;69.43;46.33;;;31.10;99.90;;;;;;5033339;28;20021;-67
2022/07/19 11:07:03;;;;;;;65.22;41.15;;;31.10;99.90;;;;;;5035583;28;20036;-69
2022/07/19 11:09:35;;;;;;;50.05;31.50;;;31.10;99.90;;;;;;5033393;28;20025;-69
2022/07/19 11:12:21;;;;;;;45.53;27.45;;;31.10;99.90;;;;;;5035689;28;20466;-67
2022/07/19 11:14:47;;;;;;;42.67;25.13;;;31.10;99.90;;;;;;5035570;28;20390;-68
2022/07/19 11:17:14;;;;;;;51.45;28.40;;;31.00;99.90;;;;;;5035463;28;20018;-67
2022/07/19 11:20:00;;;;;;;47.22;27.33;;;31.10;99.90;;;;;;5032709;28;20025;-67
2022/07/19 11:22:36;;;;;;;39.80;20.13;;;31.00;99.90;;;;;;5031640;28;20456;-67
2022/07/19 11:25:05;;;;;;;50.42;31.25;;;31.00;99.90;;;;;;5033105;28;20017;-69
2022/07/19 11:27:32;;;;;;;42.58;23.23;;;30.90;99.90;;;;;;5035262;28;20025;-68
2022/07/19 11:30:01;;;;;;;52.28;29.15;;;30.90;99.90;;;;;;5032553;28;20032;-68
2022/07/19 11:32:28;;;;;;;42.95;24.10;;;31.00;99.90;;;;;;5040340;28;20056;-65
2022/07/19 11:34:58;;;;;;;39.63;24.20;;;30.90;99.90;;;;;;5037151;28;20033;-67
2022/07/19 11:37:30;;;;;;;49.28;29.20;;;30.90;99.90;;;;;;5034925;28;20121;-69
2022/07/19 11:39:57;;;;;;;76.47;41.40;;;30.90;99.90;;;;;;5035043;28;20018;-69
2022/07/19 11:42:28;;;;;;;47.83;30.63;;;31.00;99.90;;;;;;5034861;28;20259;-67
2022/07/19 11:44:54;;;;;;;43.95;27.73;;;30.80;99.90;;;;;;5033463;28;20032;-67
2022/07/19 11:47:21;;;;;;;37.28;23.55;;;30.80;99.90;;;;;;5034695;28;20025;-68
2022/07/19 11:49:48;;;;;;;34.42;22.40;;;30.80;99.90;;;;;;5035415;28;20022;-68
2022/07/19 11:52:14;;;;;;;29.60;17.77;;;30.80;99.90;;;;;;5035279;28;20025;-68
2022/07/19 11:54:41;;;;;;;33.90;18.70;;;30.80;99.90;;;;;;5035224;28;20422;-68
2022/07/19 11:57:13;;;;;;;31.20;16.67;;;30.70;99.90;;;;;;5035216;28;20038;-68
2022/07/19 11:59:39;;;;;;;29.30;17.58;;;30.70;99.90;;;;;;5035126;28;20121;-67
2022/07/19 12:02:06;;;;;;;26.65;13.90;;;30.60;99.90;;;;;;5035273;28;20474;-68
2022/07/19 12:04:37;;;;;;;26.77;14.57;;;30.60;99.90;;;;;;5035335;28;20021;-65
2022/07/19 12:07:03;;;;;;;38.60;14.75;;;30.50;99.90;;;;;;5035023;28;20398;-65
2022/07/19 12:09:33;;;;;;;20.17;11.73;;;30.50;99.90;;;;;;5035094;28;20036;-65
2022/07/19 12:12:11;;;;;;;25.60;14.80;;;30.40;99.90;;;;;;5035299;28;20104;-64
2022/07/19 12:14:40;;;;;;;25.33;13.65;;;30.40;99.90;;;;;;5034914;28;20040;-64
2022/07/19 12:17:11;;;;;;;23.10;11.43;;;30.40;99.90;;;;;;5034897;28;20026;-64
2022/07/19 12:19:39;;;;;;;26.80;12.10;;;30.40;99.90;;;;;;5034773;28;20014;-64
2022/07/19 12:22:06;;;;;;;16.13;9.02;;;30.40;99.90;;;;;;5035129;28;20029;-68
2022/07/19 12:24:44;;;;;;;18.63;9.02;;;30.30;99.90;;;;;;5034765;28;20482;-67
2022/07/19 12:27:16;;;;;;;15.88;8.45;;;30.20;99.90;;;;;;5034555;28;20112;-66
2022/07/19 12:29:47;;;;;;;24.95;9.00;;;30.20;99.90;;;;;;5034910;28;20041;-66
2022/07/19 12:32:26;;;;;;;18.52;9.27;;;30.10;99.90;;;;;;5034029;28;20057;-67